createdAt,value
2023-05-22T00:02:23.123Z,30.27
2023-05-22T00:04:51.162Z,35.08
2023-05-22T00:07:18.440Z,30.98
2023-05-22T00:09:46.551Z,34.55
2023-05-22T00:12:13.833Z,30.17
2023-05-22T00:14:41.061Z,28.25
2023-05-22T00:17:10.317Z,29.95
2023-05-22T00:19:38.313Z,32.17
2023-05-22T00:22:06.120Z,33.03
2023-05-22T00:24:33.462Z,29.73
2023-05-22T00:27:00.966Z,32.78
2023-05-22T00:29:28.286Z,28.35
2023-05-22T00:31:57.459Z,28.67
2023-05-22T00:34:24.851Z,25.80
2023-05-22T00:36:52.191Z,27.65
2023-05-22T00:39:19.530Z,29.20
2023-05-22T00:41:47.160Z,28.98
2023-05-22T00:44:14.487Z,27.33
2023-05-22T00:46:43.260Z,25.15
2023-05-22T00:49:10.748Z,27.88
2023-05-22T00:51:38.117Z,30.88
2023-05-22T00:54:06.205Z,24.58
2023-05-22T00:56:33.968Z,23.77
2023-05-22T00:59:01.478Z,28.60
2023-05-22T01:01:33.454Z,23.02
2023-05-22T01:04:02.094Z,30.40
2023-05-22T01:06:32.107Z,22.58
2023-05-22T01:08:59.542Z,25.45
2023-05-22T01:11:51.339Z,25.77
2023-05-22T01:14:40.419Z,22.15
2023-05-22T01:17:23.565Z,23.48
2023-05-22T01:20:24.394Z,24.17
2023-05-22T01:23:27.022Z,22.08
2023-05-22T01:26:24.699Z,24.90
2023-05-22T01:29:01.289Z,21.65
2023-05-22T01:31:31.456Z,25.05
2023-05-22T01:34:02.549Z,24.77
2023-05-22T01:36:35.075Z,23.90
2023-05-22T01:39:06.171Z,24.52
2023-05-22T01:41:34.825Z,25.05
2023-05-22T01:44:02.796Z,26.20
2023-05-22T01:46:31.106Z,25.55
2023-05-22T01:48:59.488Z,26.00
2023-05-22T01:51:53.622Z,23.75
2023-05-22T01:54:24.605Z,28.38
2023-05-22T01:56:57.621Z,27.60
2023-05-22T01:59:34.312Z,27.05
2023-05-22T02:02:06.421Z,24.02
2023-05-22T02:04:39.833Z,27.17
2023-05-22T02:07:12.054Z,28.08
2023-05-22T02:09:41.120Z,24.85
2023-05-22T02:12:09.079Z,25.90
2023-05-22T02:14:37.525Z,25.00
2023-05-22T02:17:05.774Z,23.48
2023-05-22T02:19:35.610Z,26.17
2023-05-22T02:22:03.727Z,23.90
2023-05-22T02:24:31.654Z,23.85
2023-05-22T02:26:59.203Z,27.80
2023-05-22T02:29:26.535Z,33.22
2023-05-22T02:31:54.648Z,30.65
2023-05-22T02:34:21.928Z,31.75
2023-05-22T02:36:50.888Z,30.75
2023-05-22T02:39:19.391Z,28.65
2023-05-22T02:41:46.691Z,30.17
2023-05-22T02:44:14.070Z,29.23
2023-05-22T02:46:41.496Z,33.47
2023-05-22T02:49:08.973Z,30.10
2023-05-22T02:51:36.726Z,34.83
2023-05-22T02:54:04.001Z,29.27
2023-05-22T02:56:31.358Z,33.45
2023-05-22T02:58:58.765Z,33.00
2023-05-22T03:01:30.475Z,31.88
2023-05-22T03:03:58.072Z,34.90
2023-05-22T03:06:25.449Z,35.90
2023-05-22T03:08:54.000Z,41.42
2023-05-22T03:11:21.578Z,34.97
2023-05-22T03:13:48.880Z,33.13
2023-05-22T03:16:16.291Z,36.22
2023-05-22T03:18:46.342Z,36.58
2023-05-22T03:21:13.641Z,37.22
2023-05-22T03:23:41.041Z,39.35
2023-05-22T03:26:08.287Z,37.58
2023-05-22T03:28:38.144Z,34.80
2023-05-22T03:31:05.863Z,37.22
2023-05-22T03:33:41.597Z,38.95
2023-05-22T03:36:09.658Z,32.88
2023-05-22T03:38:37.150Z,34.45
2023-05-22T03:41:04.576Z,36.35
2023-05-22T03:43:31.845Z,34.72
2023-05-22T03:45:59.427Z,35.83
2023-05-22T03:48:28.099Z,33.38
2023-05-22T03:50:55.550Z,34.65
2023-05-22T03:53:22.952Z,29.75
2023-05-22T03:55:50.440Z,38.58
2023-05-22T03:58:17.796Z,34.55
2023-05-22T04:00:46.294Z,32.17
2023-05-22T04:03:13.586Z,26.80
2023-05-22T04:05:41.122Z,33.38
2023-05-22T04:08:08.468Z,32.13
2023-05-22T04:10:39.135Z,31.55
2023-05-22T04:13:06.805Z,29.50
2023-05-22T04:15:34.190Z,32.03
2023-05-22T04:18:01.641Z,27.95
2023-05-22T04:20:28.941Z,30.05
2023-05-22T04:22:57.599Z,29.10
2023-05-22T04:25:24.828Z,24.65
2023-05-22T04:27:53.363Z,29.08
2023-05-22T04:30:22.063Z,29.92
2023-05-22T04:32:49.955Z,25.33
2023-05-22T04:35:18.541Z,27.70
2023-05-22T04:37:46.072Z,28.15
2023-05-22T04:40:15.192Z,29.98
2023-05-22T04:42:42.945Z,27.42
2023-05-22T04:45:10.940Z,31.42
2023-05-22T04:47:41.707Z,33.33
2023-05-22T04:50:09.782Z,29.23
2023-05-22T04:52:37.321Z,31.58
2023-05-22T04:55:06.891Z,35.13
2023-05-22T04:57:34.209Z,34.03
2023-05-22T05:00:01.811Z,30.48
2023-05-22T05:02:32.721Z,31.48
2023-05-22T05:05:00.125Z,33.75
2023-05-22T05:07:27.870Z,34.47
2023-05-22T05:09:55.141Z,34.55
2023-05-22T05:12:22.601Z,33.70
2023-05-22T05:14:50.886Z,35.97
2023-05-22T05:17:18.219Z,30.80
2023-05-22T05:19:45.446Z,33.63
2023-05-22T05:22:12.737Z,37.63
2023-05-22T05:24:40.256Z,35.00
2023-05-22T05:27:07.683Z,30.83
2023-05-22T05:29:35.511Z,38.08
2023-05-22T05:32:09.187Z,29.40
2023-05-22T05:34:59.558Z,37.97
2023-05-22T05:37:41.658Z,35.08
2023-05-22T05:40:09.737Z,34.85
2023-05-22T05:42:40.684Z,33.95
2023-05-22T05:45:10.560Z,38.58
2023-05-22T05:47:37.866Z,42.47
2023-05-22T05:50:06.262Z,37.95
2023-05-22T05:52:35.102Z,44.83
2023-05-22T05:55:08.929Z,35.90
2023-05-22T05:57:36.391Z,47.80
2023-05-22T06:00:05.867Z,33.25
2023-05-22T06:02:42.411Z,36.10
2023-05-22T06:05:35.828Z,36.30
2023-05-22T06:08:15.458Z,36.55
2023-05-22T06:10:42.716Z,40.78
2023-05-22T06:13:16.193Z,43.85
2023-05-22T06:15:43.599Z,41.47
2023-05-22T06:18:11.052Z,45.20
2023-05-22T06:20:40.223Z,49.22
2023-05-22T06:23:07.963Z,46.13
2023-05-22T06:25:35.373Z,52.38
2023-05-22T06:28:04.490Z,55.13
2023-05-22T06:30:39.704Z,48.72
2023-05-22T06:33:11.854Z,50.83
2023-05-22T06:35:40.988Z,45.42
2023-05-22T06:38:08.604Z,48.55
2023-05-22T06:40:36.139Z,52.42
2023-05-22T06:43:11.268Z,48.70
2023-05-22T06:45:45.554Z,47.08
2023-05-22T06:48:36.388Z,51.97
2023-05-22T06:51:12.731Z,48.72
2023-05-22T06:53:41.446Z,54.17
2023-05-22T06:56:19.550Z,50.67
2023-05-22T06:58:54.432Z,49.40
2023-05-22T07:01:25.321Z,53.00
2023-05-22T07:04:05.287Z,53.33
2023-05-22T07:06:39.059Z,49.88
2023-05-22T07:09:08.246Z,57.92
2023-05-22T07:11:35.962Z,60.17
2023-05-22T07:14:03.636Z,50.42
2023-05-22T07:16:31.502Z,53.10
2023-05-22T07:18:59.330Z,51.78
2023-05-22T07:21:27.086Z,53.38
2023-05-22T07:23:55.782Z,55.35
2023-05-22T07:26:23.673Z,52.83
2023-05-22T07:29:01.057Z,51.38
2023-05-22T07:31:29.036Z,57.13
2023-05-22T07:33:56.448Z,53.60
2023-05-22T07:36:23.763Z,49.88
2023-05-22T07:38:51.082Z,50.35
2023-05-22T07:41:18.456Z,51.30
2023-05-22T07:43:45.758Z,55.92
2023-05-22T07:46:16.646Z,51.92
2023-05-22T07:48:55.645Z,56.90
2023-05-22T07:51:23.134Z,62.25
2023-05-22T07:53:52.259Z,55.50
2023-05-22T07:56:19.537Z,67.53
2023-05-22T07:58:48.810Z,62.22
2023-05-22T08:01:19.279Z,51.55
2023-05-22T08:03:46.730Z,53.97
2023-05-22T08:06:16.175Z,57.65
2023-05-22T08:08:43.558Z,59.72
2023-05-22T08:11:11.106Z,55.28
2023-05-22T08:13:38.829Z,53.88
2023-05-22T08:16:07.027Z,62.63
2023-05-22T08:18:34.823Z,68.50
2023-05-22T08:21:02.105Z,62.08
2023-05-22T08:23:30.025Z,68.88
2023-05-22T08:25:58.286Z,64.50
2023-05-22T08:28:25.689Z,60.22
2023-05-22T08:30:54.462Z,55.05
2023-05-22T08:33:22.048Z,57.03
2023-05-22T08:35:49.449Z,58.60
2023-05-22T08:38:17.504Z,57.55
2023-05-22T08:40:48.723Z,54.50
2023-05-22T08:43:16.252Z,57.80
2023-05-22T08:45:44.136Z,56.53
2023-05-22T08:48:17.689Z,64.65
2023-05-22T08:50:47.753Z,68.65
2023-05-22T08:53:16.680Z,63.10
2023-05-22T08:55:44.040Z,60.90
2023-05-22T08:58:12.271Z,60.03
2023-05-22T09:00:39.945Z,60.22
2023-05-22T09:03:10.172Z,60.78
2023-05-22T09:05:37.665Z,56.72
2023-05-22T09:08:16.066Z,58.13
2023-05-22T09:10:47.812Z,62.40
2023-05-22T09:13:28.376Z,57.85
2023-05-22T09:16:12.073Z,57.35
2023-05-22T09:18:40.491Z,45.20
2023-05-22T09:21:21.607Z,41.22
2023-05-22T09:24:01.134Z,40.40
2023-05-22T09:26:32.975Z,38.03
2023-05-22T09:29:01.176Z,39.40
2023-05-22T09:31:29.549Z,47.78
2023-05-22T09:33:57.269Z,41.13
2023-05-22T09:36:32.371Z,49.45
2023-05-22T09:39:04.372Z,39.72
2023-05-22T09:41:36.560Z,42.20
2023-05-22T09:44:14.224Z,41.03
2023-05-22T09:46:46.416Z,42.55
2023-05-22T09:49:16.543Z,38.60
2023-05-22T09:51:48.035Z,44.55
2023-05-22T09:54:16.298Z,48.65
2023-05-22T09:56:44.669Z,54.13
2023-05-22T09:59:13.854Z,43.88
2023-05-22T10:01:42.613Z,46.95
2023-05-22T10:04:16.599Z,45.47
2023-05-22T10:06:50.834Z,50.10
2023-05-22T10:09:21.376Z,45.95
2023-05-22T10:11:51.590Z,40.33
2023-05-22T10:14:19.152Z,47.20
2023-05-22T10:16:47.156Z,48.42
2023-05-22T10:19:14.880Z,48.83
2023-05-22T10:21:42.352Z,42.35
2023-05-22T10:24:10.951Z,52.22
2023-05-22T10:26:39.108Z,50.70
2023-05-22T10:29:17.840Z,56.45
2023-05-22T10:32:14.835Z,53.45
2023-05-22T10:35:26.582Z,50.22
2023-05-22T10:37:56.590Z,47.75
2023-05-22T10:40:32.619Z,50.80
2023-05-22T10:43:02.093Z,46.42
2023-05-22T10:45:29.832Z,48.08
2023-05-22T10:48:09.913Z,44.58
2023-05-22T10:50:50.078Z,45.08
2023-05-22T10:53:28.350Z,47.15
2023-05-22T10:55:56.993Z,47.45
2023-05-22T10:58:28.918Z,45.10
2023-05-22T11:01:18.756Z,51.03
2023-05-22T11:04:06.724Z,44.65
2023-05-22T11:06:45.973Z,46.58
2023-05-22T11:09:29.727Z,54.20
2023-05-22T11:12:24.914Z,56.15
2023-05-22T11:15:09.595Z,54.05
2023-05-22T11:17:40.085Z,48.03
2023-05-22T11:20:18.697Z,41.72
2023-05-22T11:23:05.338Z,50.88
2023-05-22T11:25:38.421Z,48.28
2023-05-22T11:28:07.272Z,47.83
2023-05-22T11:30:35.310Z,53.28
2023-05-22T11:33:03.176Z,52.17
2023-05-22T11:35:31.245Z,53.13
2023-05-22T11:37:58.887Z,46.50
2023-05-22T11:40:29.604Z,50.03
2023-05-22T11:42:57.211Z,49.47
2023-05-22T11:45:24.730Z,43.90
2023-05-22T11:47:52.159Z,55.20
2023-05-22T11:50:33.389Z,42.22
2023-05-22T11:53:07.448Z,49.78
2023-05-22T11:55:35.057Z,47.25
2023-05-22T11:58:02.897Z,41.85
2023-05-22T12:00:31.813Z,40.05
2023-05-22T12:03:01.425Z,41.75
2023-05-22T12:05:31.396Z,39.38
2023-05-22T12:07:58.886Z,45.53
2023-05-22T12:10:26.340Z,42.13
2023-05-22T12:12:54.854Z,36.28
2023-05-22T12:15:22.327Z,47.05
2023-05-22T12:17:49.653Z,43.20
2023-05-22T12:20:17.117Z,43.95
2023-05-22T12:22:44.454Z,48.22
2023-05-22T12:25:20.150Z,42.80
2023-05-22T12:27:47.805Z,42.95
2023-05-22T12:30:15.719Z,41.97
2023-05-22T12:32:50.853Z,44.67
2023-05-22T12:35:18.932Z,41.38
2023-05-22T12:37:50.633Z,44.17
2023-05-22T12:40:18.180Z,46.70
2023-05-22T12:42:45.796Z,43.10
2023-05-22T12:45:13.774Z,45.10
2023-05-22T12:47:41.290Z,46.15
2023-05-22T12:50:09.252Z,41.63
2023-05-22T12:52:36.652Z,50.25
2023-05-22T12:55:04.466Z,46.80
2023-05-22T12:57:31.786Z,43.33
2023-05-22T12:59:59.306Z,34.65
2023-05-22T13:02:26.832Z,43.80
2023-05-22T13:04:54.152Z,41.13
2023-05-22T13:07:21.552Z,38.92
2023-05-22T13:09:48.961Z,39.72
2023-05-22T13:12:16.402Z,41.83
2023-05-22T13:14:43.657Z,36.25
2023-05-22T13:17:11.711Z,36.13
2023-05-22T13:19:39.156Z,37.65
2023-05-22T13:22:07.694Z,33.97
2023-05-22T13:24:35.053Z,43.28
2023-05-22T13:27:02.408Z,41.10
2023-05-22T13:29:29.736Z,42.28
2023-05-22T13:31:57.078Z,39.53
2023-05-22T13:34:24.652Z,38.60
2023-05-22T13:36:52.271Z,38.33
2023-05-22T13:39:19.501Z,40.15
2023-05-22T13:41:46.858Z,42.42
2023-05-22T13:44:14.317Z,42.25
2023-05-22T13:46:41.692Z,39.88
2023-05-22T13:49:09.068Z,39.75
2023-05-22T13:51:36.386Z,43.58
2023-05-22T13:54:04.304Z,44.05
2023-05-22T13:56:31.807Z,44.33
2023-05-22T13:58:59.126Z,44.35
2023-05-22T14:01:26.537Z,56.50
2023-05-22T14:03:53.840Z,49.85
2023-05-22T14:06:21.172Z,44.15
2023-05-22T14:08:48.738Z,43.28
2023-05-22T14:11:16.083Z,48.75
2023-05-22T14:13:43.614Z,45.17
2023-05-22T14:16:10.900Z,44.33
2023-05-22T14:18:38.277Z,53.25
2023-05-22T14:21:05.692Z,46.08
2023-05-22T14:23:32.960Z,44.45
2023-05-22T14:26:00.370Z,51.95
2023-05-22T14:28:27.789Z,42.60
2023-05-22T14:30:56.288Z,46.15
2023-05-22T14:33:23.654Z,46.22
2023-05-22T14:35:51.666Z,49.60
2023-05-22T14:38:18.880Z,46.25
2023-05-22T14:40:46.147Z,44.80
2023-05-22T14:43:13.502Z,49.55
2023-05-22T14:45:41.042Z,41.42
2023-05-22T14:48:11.025Z,45.10
2023-05-22T14:50:38.536Z,46.42
2023-05-22T14:53:05.814Z,46.72
2023-05-22T14:55:33.117Z,45.15
2023-05-22T14:58:00.420Z,39.17
2023-05-22T15:00:28.222Z,43.10
2023-05-22T15:02:55.727Z,42.20
2023-05-22T15:05:23.421Z,43.72
2023-05-22T15:07:51.698Z,41.92
2023-05-22T15:10:19.036Z,41.42
2023-05-22T15:12:46.308Z,39.45
2023-05-22T15:15:13.692Z,44.72
2023-05-22T15:17:42.896Z,48.13
2023-05-22T15:20:11.263Z,50.05
2023-05-22T15:22:39.333Z,49.92
2023-05-22T15:25:16.900Z,47.95
2023-05-22T15:27:44.263Z,42.13
2023-05-22T15:30:12.393Z,50.20
2023-05-22T15:32:39.791Z,47.30
2023-05-22T15:35:09.999Z,44.22
2023-05-22T15:37:37.330Z,46.08
2023-05-22T15:40:05.996Z,57.08
2023-05-22T15:42:33.298Z,48.22
2023-05-22T15:45:00.967Z,59.47
2023-05-22T15:47:29.638Z,48.45
2023-05-22T15:49:57.024Z,59.17
2023-05-22T15:52:24.661Z,56.38
2023-05-22T15:54:52.293Z,50.05
2023-05-22T15:57:19.940Z,58.45
2023-05-22T15:59:50.576Z,51.15
2023-05-22T16:02:19.309Z,52.58
2023-05-22T16:04:46.812Z,50.38
2023-05-22T16:07:14.183Z,57.40
2023-05-22T16:09:43.427Z,49.15
2023-05-22T16:12:10.969Z,56.80
2023-05-22T16:14:39.830Z,52.80
2023-05-22T16:17:07.498Z,48.47
2023-05-22T16:19:35.052Z,58.53
2023-05-22T16:22:03.105Z,48.05
2023-05-22T16:24:30.597Z,50.58
2023-05-22T16:26:59.816Z,44.28
2023-05-22T16:29:27.274Z,44.80
2023-05-22T16:31:57.439Z,51.25
2023-05-22T16:34:24.919Z,51.53
2023-05-22T16:36:52.184Z,54.22
2023-05-22T16:39:19.494Z,54.20
2023-05-22T16:41:46.798Z,51.95
2023-05-22T16:44:14.246Z,55.50
2023-05-22T16:46:41.545Z,54.25
2023-05-22T16:49:08.841Z,42.42
2023-05-22T16:51:36.486Z,55.00
2023-05-22T16:54:03.950Z,58.05
2023-05-22T16:56:34.059Z,48.67
2023-05-22T16:59:02.062Z,55.75
2023-05-22T17:01:29.857Z,49.33
2023-05-22T17:03:57.573Z,47.25
2023-05-22T17:06:24.976Z,57.60
2023-05-22T17:08:52.317Z,50.83
2023-05-22T17:11:19.587Z,58.47
2023-05-22T17:13:46.970Z,50.47
2023-05-22T17:16:14.395Z,74.70
2023-05-22T17:18:41.884Z,63.05
2023-05-22T17:21:09.409Z,54.63
2023-05-22T17:23:37.370Z,67.00
2023-05-22T17:26:04.901Z,65.18
2023-05-22T17:28:32.474Z,50.75
2023-05-22T17:30:59.862Z,47.20
2023-05-22T17:33:27.212Z,53.53
2023-05-22T17:35:54.897Z,52.53
2023-05-22T17:38:22.320Z,53.67
2023-05-22T17:40:50.026Z,51.25
2023-05-22T17:43:19.052Z,45.08
2023-05-22T17:45:50.011Z,46.75
2023-05-22T17:48:27.097Z,53.15
2023-05-22T17:50:55.353Z,46.42
2023-05-22T17:53:23.049Z,45.75
2023-05-22T17:55:55.102Z,46.85
2023-05-22T17:58:23.120Z,50.97
2023-05-22T18:00:50.797Z,45.63
2023-05-22T18:03:21.819Z,44.22
2023-05-22T18:05:50.451Z,45.17
2023-05-22T18:08:19.234Z,40.92
2023-05-22T18:10:46.800Z,44.50
2023-05-22T18:13:14.244Z,35.72
2023-05-22T18:15:41.665Z,37.97
2023-05-22T18:18:11.370Z,34.13
2023-05-22T18:20:40.544Z,28.10
2023-05-22T18:23:08.114Z,27.05
2023-05-22T18:25:35.418Z,23.45
2023-05-22T18:28:02.721Z,27.08
2023-05-22T18:30:30.297Z,29.85
2023-05-22T18:33:00.891Z,14.52
2023-05-22T18:35:33.774Z,16.33
2023-05-22T18:38:01.034Z,15.55
2023-05-22T18:40:28.351Z,20.15
2023-05-22T18:42:55.723Z,11.13
2023-05-22T18:45:23.213Z,14.60
2023-05-22T18:47:50.578Z,9.13
2023-05-22T18:50:18.016Z,12.48
2023-05-22T18:52:45.468Z,9.05
2023-05-22T18:55:13.486Z,10.60
2023-05-22T18:57:40.886Z,8.80
2023-05-22T19:00:10.359Z,8.50
2023-05-22T19:02:39.666Z,10.00
2023-05-22T19:05:07.768Z,11.05
2023-05-22T19:07:35.593Z,23.77
2023-05-22T19:10:05.457Z,8.52
2023-05-22T19:12:34.750Z,10.38
2023-05-22T19:15:02.987Z,9.90
2023-05-22T19:17:30.746Z,9.48
2023-05-22T19:19:58.519Z,9.48
2023-05-22T19:22:26.309Z,9.30
2023-05-22T19:24:54.010Z,9.65
2023-05-22T19:27:21.716Z,9.77
2023-05-22T19:29:49.371Z,8.90
2023-05-22T19:32:16.744Z,7.75
2023-05-22T19:34:44.225Z,7.63
2023-05-22T19:37:11.621Z,8.75
2023-05-22T19:39:39.208Z,10.75
2023-05-22T19:42:08.260Z,9.63
2023-05-22T19:44:35.684Z,10.48
2023-05-22T19:47:03.065Z,10.15
2023-05-22T19:49:31.684Z,11.32
2023-05-22T19:51:59.559Z,10.88
2023-05-22T19:54:26.915Z,10.77
2023-05-22T19:56:54.316Z,9.48
2023-05-22T19:59:21.816Z,11.65
2023-05-22T20:01:51.315Z,17.95
2023-05-22T20:04:20.180Z,12.13
2023-05-22T20:06:48.586Z,10.55
2023-05-22T20:09:16.477Z,11.52
2023-05-22T20:11:43.872Z,12.98
2023-05-22T20:14:13.245Z,11.30
2023-05-22T20:16:40.765Z,11.27
2023-05-22T20:19:09.138Z,16.90
2023-05-22T20:21:36.911Z,12.10
2023-05-22T20:24:12.026Z,13.55
2023-05-22T20:26:39.547Z,13.43
2023-05-22T20:29:06.978Z,15.70
2023-05-22T20:31:34.857Z,13.93
2023-05-22T20:34:04.098Z,11.93
2023-05-22T20:36:35.056Z,16.10
2023-05-22T20:39:02.644Z,12.80
2023-05-22T20:41:30.054Z,13.63
2023-05-22T20:43:58.783Z,15.20
2023-05-22T20:46:26.800Z,14.27
2023-05-22T20:48:54.711Z,16.70
2023-05-22T20:51:22.284Z,17.10
2023-05-22T20:53:54.245Z,14.75
2023-05-22T20:56:21.622Z,12.85
2023-05-22T20:58:48.998Z,16.38
2023-05-22T21:01:16.433Z,12.73
2023-05-22T21:03:43.844Z,13.52
2023-05-22T21:06:11.321Z,12.88
2023-05-22T21:08:38.703Z,12.75
2023-05-22T21:11:07.340Z,18.88
2023-05-22T21:13:38.225Z,14.00
2023-05-22T21:16:05.794Z,15.65
2023-05-22T21:18:33.184Z,14.10
2023-05-22T21:21:00.851Z,15.18
2023-05-22T21:23:28.202Z,14.07
2023-05-22T21:25:55.532Z,21.85
2023-05-22T21:28:22.965Z,15.73
2023-05-22T21:30:50.473Z,13.93
2023-05-22T21:33:17.918Z,13.45
2023-05-22T21:35:45.442Z,13.70
2023-05-22T21:38:13.026Z,14.95
2023-05-22T21:40:42.606Z,13.57
2023-05-22T21:43:10.295Z,15.88
2023-05-22T21:45:38.869Z,14.30
2023-05-22T21:48:06.295Z,12.90
2023-05-22T21:50:33.704Z,12.18
2023-05-22T21:53:01.021Z,13.73
2023-05-22T21:55:28.398Z,9.40
2023-05-22T21:57:56.342Z,12.93
2023-05-22T22:00:23.722Z,10.00
2023-05-22T22:02:51.091Z,9.20
2023-05-22T22:05:18.909Z,10.27
2023-05-22T22:07:46.272Z,8.50
2023-05-22T22:10:13.530Z,7.10
2023-05-22T22:12:41.086Z,8.07
2023-05-22T22:15:09.141Z,10.48
2023-05-22T22:17:37.239Z,7.15
2023-05-22T22:20:05.862Z,8.15
2023-05-22T22:22:33.167Z,6.78
2023-05-22T22:25:00.455Z,7.90
2023-05-22T22:27:27.772Z,6.90
2023-05-22T22:29:55.079Z,7.07
2023-05-22T22:32:22.361Z,6.70
2023-05-22T22:34:53.712Z,6.47
2023-05-22T22:37:21.929Z,7.38
2023-05-22T22:39:49.208Z,7.03
2023-05-22T22:42:16.635Z,8.20
2023-05-22T22:44:44.238Z,6.05
2023-05-22T22:47:11.559Z,5.68
2023-05-22T22:49:38.877Z,6.55
2023-05-22T22:52:06.185Z,8.23
2023-05-22T22:54:33.540Z,9.15
2023-05-22T22:57:00.909Z,8.70
2023-05-22T22:59:28.176Z,8.95
2023-05-22T23:01:55.552Z,11.25
2023-05-22T23:04:23.061Z,9.23
2023-05-22T23:06:50.349Z,7.60
2023-05-22T23:09:17.655Z,8.45
2023-05-22T23:11:44.904Z,9.40
2023-05-22T23:14:13.463Z,7.53
2023-05-22T23:16:41.271Z,8.85
2023-05-22T23:19:10.417Z,8.52
2023-05-22T23:21:37.747Z,6.35
2023-05-22T23:24:05.443Z,10.98
2023-05-22T23:26:33.595Z,8.13
2023-05-22T23:29:01.353Z,8.77
2023-05-22T23:31:30.762Z,8.13
2023-05-22T23:33:58.753Z,7.68
2023-05-22T23:36:26.278Z,7.78
2023-05-22T23:38:53.596Z,8.10
2023-05-22T23:41:20.870Z,8.02
2023-05-22T23:43:48.128Z,9.23
2023-05-22T23:46:15.357Z,8.45
2023-05-22T23:48:42.988Z,6.57
2023-05-22T23:51:14.433Z,8.48
2023-05-22T23:53:42.337Z,6.60
2023-05-22T23:56:09.702Z,9.35
2023-05-22T23:58:40.139Z,8.68
